createdAt,value
2023-05-21T00:01:30.373Z,3.90
2023-05-21T00:04:34.726Z,3.90
2023-05-21T00:07:37.776Z,4.68
2023-05-21T00:10:41.847Z,4.05
2023-05-21T00:13:44.740Z,3.65
2023-05-21T00:16:48.681Z,3.92
2023-05-21T00:19:52.477Z,4.53
2023-05-21T00:22:56.014Z,4.13
2023-05-21T00:26:00.578Z,4.13
2023-05-21T00:29:05.002Z,4.47
2023-05-21T00:32:08.881Z,3.50
2023-05-21T00:35:13.593Z,3.55
2023-05-21T00:38:19.095Z,4.20
2023-05-21T00:41:23.858Z,3.85
2023-05-21T00:44:34.630Z,3.80
2023-05-21T00:47:38.813Z,4.00
2023-05-21T00:50:42.588Z,3.85
2023-05-21T00:53:47.594Z,2.90
2023-05-21T01:00:15.849Z,2.50
2023-05-21T01:03:19.634Z,3.00
2023-05-21T01:06:24.062Z,3.47
2023-05-21T01:09:28.599Z,2.97
2023-05-21T01:12:33.689Z,3.10
2023-05-21T01:15:39.025Z,2.50
2023-05-21T01:18:45.469Z,2.63
2023-05-21T01:22:05.066Z,2.47
2023-05-21T01:25:09.826Z,2.35
2023-05-21T01:28:14.065Z,2.90
2023-05-21T01:31:30.301Z,2.35
2023-05-21T01:34:48.890Z,2.05
2023-05-21T01:38:21.913Z,2.03
2023-05-21T01:41:36.017Z,2.13
2023-05-21T01:44:41.359Z,2.33
2023-05-21T01:47:50.100Z,2.00
2023-05-21T01:50:57.009Z,2.42
2023-05-21T01:54:02.297Z,2.00
2023-05-21T01:57:18.760Z,2.38
2023-05-21T02:00:41.205Z,2.35
2023-05-21T02:03:49.203Z,2.17
2023-05-21T02:06:55.360Z,2.30
2023-05-21T02:10:01.865Z,2.17
2023-05-21T02:13:12.424Z,2.28
2023-05-21T02:16:17.223Z,2.58
2023-05-21T02:19:21.373Z,2.20
2023-05-21T02:22:25.261Z,2.28
2023-05-21T02:25:28.787Z,2.58
2023-05-21T02:28:33.876Z,2.30
2023-05-21T02:31:38.168Z,2.63
2023-05-21T02:34:43.928Z,2.80
2023-05-21T02:37:48.820Z,2.42
2023-05-21T02:40:53.776Z,2.83
2023-05-21T02:43:58.389Z,2.70
2023-05-21T02:47:03.613Z,2.97
2023-05-21T02:50:10.823Z,3.00
2023-05-21T02:53:24.363Z,2.85
2023-05-21T02:56:28.986Z,2.67
2023-05-21T02:59:33.726Z,3.00
2023-05-21T03:02:40.872Z,2.67
2023-05-21T03:05:47.113Z,2.88
2023-05-21T03:08:51.678Z,3.30
2023-05-21T03:11:56.631Z,3.00
2023-05-21T03:15:00.890Z,3.00
2023-05-21T03:18:06.454Z,3.15
2023-05-21T03:21:14.237Z,3.08
2023-05-21T03:24:18.825Z,3.72
2023-05-21T03:27:22.843Z,3.05
2023-05-21T03:30:27.691Z,3.00
2023-05-21T03:33:54.920Z,3.55
2023-05-21T03:37:02.136Z,2.70
2023-05-21T03:40:09.097Z,2.55
2023-05-21T03:43:14.131Z,2.42
2023-05-21T03:46:19.627Z,3.20
2023-05-21T03:49:38.226Z,2.95
2023-05-21T03:52:43.542Z,3.13
2023-05-21T03:55:48.531Z,2.80
2023-05-21T03:58:53.686Z,3.10
2023-05-21T04:01:58.728Z,3.40
2023-05-21T04:05:03.437Z,3.25
2023-05-21T04:08:08.372Z,2.72
2023-05-21T04:11:13.632Z,2.95
2023-05-21T04:14:22.861Z,3.00
2023-05-21T04:17:29.730Z,2.90
2023-05-21T04:20:34.669Z,2.50
2023-05-21T04:23:38.976Z,2.38
2023-05-21T04:26:50.925Z,2.40
2023-05-21T04:29:57.356Z,3.63
2023-05-21T04:33:01.494Z,2.67
2023-05-21T04:36:06.403Z,2.38
2023-05-21T04:39:10.311Z,2.67
2023-05-21T04:42:15.853Z,2.75
2023-05-21T04:45:21.738Z,2.92
2023-05-21T04:48:30.980Z,2.33
2023-05-21T04:51:38.970Z,2.40
2023-05-21T04:54:47.607Z,2.55
2023-05-21T04:57:52.715Z,1.70
2023-05-21T05:00:59.329Z,1.70
2023-05-21T05:04:03.750Z,1.80
2023-05-21T05:07:08.730Z,1.80
2023-05-21T05:10:14.014Z,2.10
2023-05-21T05:13:19.233Z,2.20
2023-05-21T05:16:27.419Z,1.90
2023-05-21T05:19:33.961Z,2.17
2023-05-21T05:22:39.592Z,2.10
2023-05-21T05:25:45.650Z,3.13
2023-05-21T05:28:50.976Z,1.65
2023-05-21T05:31:55.998Z,1.90
2023-05-21T05:35:02.416Z,2.00
2023-05-21T05:38:10.196Z,2.22
2023-05-21T05:41:15.326Z,1.70
2023-05-21T05:44:20.754Z,1.70
2023-05-21T05:47:25.642Z,1.73
2023-05-21T05:50:30.020Z,1.75
2023-05-21T05:53:34.043Z,1.95
2023-05-21T05:56:38.122Z,1.67
2023-05-21T05:59:42.380Z,2.03
2023-05-21T06:02:49.461Z,2.28
2023-05-21T06:05:54.065Z,2.00
2023-05-21T06:08:59.923Z,2.00
2023-05-21T06:12:05.977Z,1.73
2023-05-21T06:15:12.551Z,1.70
2023-05-21T06:18:17.301Z,1.52
2023-05-21T06:21:23.085Z,1.75
2023-05-21T06:24:27.777Z,1.83
2023-05-21T06:27:33.628Z,1.60
2023-05-21T06:30:40.706Z,1.90
2023-05-21T06:33:45.390Z,1.83
2023-05-21T06:36:49.784Z,2.35
2023-05-21T06:39:53.895Z,2.05
2023-05-21T06:43:00.628Z,1.73
2023-05-21T06:46:24.261Z,1.50
2023-05-21T06:49:28.674Z,1.42
2023-05-21T06:52:32.960Z,1.80
2023-05-21T06:55:38.456Z,1.77
2023-05-21T06:58:56.968Z,1.70
2023-05-21T07:02:02.381Z,1.67
2023-05-21T07:05:08.395Z,1.90
2023-05-21T07:08:12.460Z,1.73
2023-05-21T07:11:16.698Z,1.80
2023-05-21T07:14:20.382Z,1.70
2023-05-21T07:17:23.853Z,1.80
2023-05-21T07:20:27.686Z,2.08
2023-05-21T07:23:36.159Z,1.60
2023-05-21T07:26:41.314Z,1.90
2023-05-21T07:29:47.364Z,1.85
2023-05-21T07:32:51.690Z,1.60
2023-05-21T07:35:56.696Z,1.80
2023-05-21T07:39:01.580Z,1.98
2023-05-21T07:42:06.582Z,1.92
2023-05-21T07:45:11.366Z,1.98
2023-05-21T07:48:20.155Z,1.52
2023-05-21T07:51:33.345Z,1.42
2023-05-21T07:54:37.474Z,1.63
2023-05-21T07:57:41.302Z,1.80
2023-05-21T08:00:49.101Z,1.80
2023-05-21T08:07:28.697Z,1.70
2023-05-21T08:10:35.204Z,1.70
2023-05-21T08:13:39.194Z,1.42
2023-05-21T08:16:48.173Z,3.22
2023-05-21T08:19:52.770Z,1.80
2023-05-21T08:22:57.222Z,1.80
2023-05-21T08:26:01.466Z,1.75
2023-05-21T08:29:07.174Z,1.60
2023-05-21T08:32:11.754Z,1.60
2023-05-21T08:35:16.188Z,2.30
2023-05-21T08:38:40.485Z,2.10
2023-05-21T08:42:36.954Z,1.70
2023-05-21T08:45:47.570Z,3.92
2023-05-21T08:48:56.429Z,2.38
2023-05-21T08:52:02.392Z,2.25
2023-05-21T08:55:07.142Z,1.83
2023-05-21T08:58:11.534Z,1.70
2023-05-21T09:01:15.626Z,1.90
2023-05-21T09:04:22.249Z,1.77
2023-05-21T09:07:29.615Z,1.83
2023-05-21T09:11:03.885Z,1.88
2023-05-21T09:14:15.966Z,1.73
2023-05-21T09:17:49.356Z,2.33
2023-05-21T09:21:29.541Z,1.95
2023-05-21T09:24:42.623Z,1.90
2023-05-21T09:30:54.502Z,1.88
2023-05-21T09:33:59.153Z,2.33
2023-05-21T09:37:04.917Z,2.30
2023-05-21T09:40:18.778Z,1.90
2023-05-21T09:43:23.483Z,2.28
2023-05-21T09:46:28.984Z,1.95
2023-05-21T09:54:35.726Z,2.38
2023-05-21T09:57:51.034Z,1.98
2023-05-21T10:00:55.551Z,2.17
2023-05-21T10:04:01.464Z,2.03
2023-05-21T10:07:07.673Z,2.20
2023-05-21T10:10:16.922Z,2.13
2023-05-21T10:13:23.578Z,1.95
2023-05-21T10:16:28.322Z,2.10
2023-05-21T10:19:37.471Z,1.92
2023-05-21T10:22:41.760Z,1.90
2023-05-21T10:25:47.695Z,1.50
2023-05-21T10:28:57.260Z,1.90
2023-05-21T10:32:03.120Z,2.20
2023-05-21T10:38:14.228Z,2.28
2023-05-21T10:41:20.572Z,3.10
2023-05-21T10:44:41.880Z,3.35
2023-05-21T10:48:08.906Z,3.80
2023-05-21T10:51:22.033Z,3.03
2023-05-21T10:55:04.345Z,3.00
2023-05-21T10:58:10.947Z,3.03
2023-05-21T11:01:16.244Z,3.25
2023-05-21T11:04:29.605Z,3.53
2023-05-21T11:07:57.246Z,3.05
2023-05-21T11:11:01.291Z,3.00
2023-05-21T11:14:41.938Z,3.28
2023-05-21T11:17:49.137Z,4.20
2023-05-21T11:24:19.405Z,3.80
2023-05-21T11:27:37.355Z,3.10
2023-05-21T11:30:41.531Z,3.17
2023-05-21T11:33:48.009Z,3.80
2023-05-21T11:37:18.072Z,3.17
2023-05-21T11:40:28.898Z,3.72
2023-05-21T11:43:33.029Z,4.35
2023-05-21T11:46:37.181Z,4.28
2023-05-21T11:49:40.879Z,4.03
2023-05-21T11:52:44.983Z,3.05
2023-05-21T11:55:48.701Z,3.70
2023-05-21T11:58:56.541Z,3.70
2023-05-21T12:02:00.809Z,3.85
2023-05-21T12:05:04.632Z,4.53
2023-05-21T12:08:09.244Z,4.35
2023-05-21T12:11:13.332Z,4.43
2023-05-21T12:14:16.979Z,4.18
2023-05-21T12:17:23.622Z,4.22
2023-05-21T12:20:28.873Z,4.55
2023-05-21T12:23:32.930Z,3.92
2023-05-21T12:26:37.591Z,6.68
2023-05-21T12:29:46.220Z,6.15
2023-05-21T12:32:50.181Z,3.70
2023-05-21T12:35:54.515Z,3.60
2023-05-21T12:39:01.364Z,3.47
2023-05-21T12:42:06.175Z,3.92
2023-05-21T12:45:10.665Z,3.78
2023-05-21T12:48:14.505Z,3.80
2023-05-21T12:51:18.495Z,4.00
2023-05-21T12:54:31.337Z,4.35
2023-05-21T12:57:41.265Z,3.22
2023-05-21T13:00:46.118Z,3.10
2023-05-21T13:03:49.831Z,3.33
2023-05-21T13:06:53.738Z,3.80
2023-05-21T13:09:58.359Z,3.80
2023-05-21T13:13:02.431Z,5.20
2023-05-21T13:16:06.037Z,5.95
2023-05-21T13:19:11.007Z,4.93
2023-05-21T13:22:15.757Z,5.07
2023-05-21T13:25:33.823Z,4.70
2023-05-21T13:28:38.138Z,4.80
2023-05-21T13:31:46.133Z,4.90
2023-05-21T13:34:50.169Z,6.50
2023-05-21T13:41:16.004Z,5.68
2023-05-21T13:44:21.246Z,6.88
2023-05-21T13:47:26.556Z,5.80
2023-05-21T13:50:31.630Z,5.80
2023-05-21T13:53:36.253Z,4.55
2023-05-21T13:56:40.100Z,5.60
2023-05-21T13:59:44.778Z,5.43
2023-05-21T14:09:29.652Z,3.30
2023-05-21T14:12:34.329Z,2.97
2023-05-21T14:15:38.404Z,3.30
2023-05-21T14:18:42.488Z,4.65
2023-05-21T14:21:49.344Z,3.95
2023-05-21T14:24:56.457Z,2.23
2023-05-21T14:28:07.215Z,2.42
2023-05-21T14:31:12.238Z,2.83
2023-05-21T14:34:16.857Z,2.70
2023-05-21T14:37:21.201Z,2.83
2023-05-21T14:40:24.626Z,2.70
2023-05-21T14:47:03.921Z,3.88
2023-05-21T14:50:10.783Z,2.70
2023-05-21T14:53:15.922Z,3.20
2023-05-21T14:59:40.795Z,2.78
2023-05-21T15:02:45.587Z,2.30
2023-05-21T15:05:49.589Z,2.90
2023-05-21T15:08:53.780Z,2.70
2023-05-21T15:11:57.582Z,3.15
2023-05-21T15:15:01.878Z,3.13
2023-05-21T15:18:05.135Z,2.42
2023-05-21T15:21:09.027Z,4.20
2023-05-21T15:24:13.108Z,2.88
2023-05-21T15:27:17.329Z,3.38
2023-05-21T15:30:23.626Z,2.45
2023-05-21T15:33:27.517Z,2.67
2023-05-21T15:36:31.581Z,2.78
2023-05-21T15:39:35.941Z,2.85
2023-05-21T15:42:40.414Z,2.58
2023-05-21T15:45:44.234Z,3.10
2023-05-21T15:48:48.539Z,3.33
2023-05-21T15:51:52.483Z,2.78
2023-05-21T15:54:57.364Z,2.88
2023-05-21T15:58:02.580Z,4.25
2023-05-21T16:01:07.016Z,2.67
2023-05-21T16:04:10.606Z,2.90
2023-05-21T16:07:15.090Z,2.58
2023-05-21T16:10:19.371Z,2.92
2023-05-21T16:13:23.070Z,2.53
2023-05-21T16:16:26.702Z,2.72
2023-05-21T16:19:30.600Z,2.55
2023-05-21T16:22:34.587Z,2.58
2023-05-21T16:25:38.230Z,2.25
2023-05-21T16:28:42.385Z,2.42
2023-05-21T16:31:45.833Z,2.00
2023-05-21T16:34:49.388Z,2.28
2023-05-21T16:37:53.443Z,2.22
2023-05-21T16:40:57.865Z,3.10
2023-05-21T16:44:01.847Z,2.70
2023-05-21T16:47:06.003Z,2.75
2023-05-21T16:50:09.832Z,2.08
2023-05-21T16:53:13.662Z,3.10
2023-05-21T16:56:16.765Z,3.30
2023-05-21T16:59:20.414Z,2.67
2023-05-21T17:02:25.439Z,2.90
2023-05-21T17:05:29.612Z,2.60
2023-05-21T17:08:32.968Z,2.90
2023-05-21T17:11:37.390Z,2.85
2023-05-21T17:14:41.460Z,2.75
2023-05-21T17:17:46.300Z,2.65
2023-05-21T17:20:50.151Z,2.03
2023-05-21T17:23:54.008Z,2.50
2023-05-21T17:26:57.311Z,2.38
2023-05-21T17:30:01.618Z,3.03
2023-05-21T17:33:07.217Z,2.70
2023-05-21T17:36:11.583Z,2.88
2023-05-21T17:39:15.791Z,2.65
2023-05-21T17:42:19.405Z,2.90
2023-05-21T17:45:23.220Z,2.55
2023-05-21T17:48:27.419Z,2.65
2023-05-21T17:51:32.558Z,2.92
2023-05-21T17:54:36.814Z,3.28
2023-05-21T17:57:40.981Z,3.13
2023-05-21T18:00:44.722Z,2.90
2023-05-21T18:03:49.424Z,2.53
2023-05-21T18:06:53.125Z,2.60
2023-05-21T18:09:56.652Z,2.33
2023-05-21T18:13:00.589Z,2.75
2023-05-21T18:16:04.537Z,2.50
2023-05-21T18:19:07.994Z,2.50
2023-05-21T18:22:12.685Z,2.40
2023-05-21T18:25:16.466Z,1.95
2023-05-21T18:28:21.331Z,2.55
2023-05-21T18:31:25.449Z,2.80
2023-05-21T18:34:29.907Z,2.53
2023-05-21T18:37:33.233Z,1.77
2023-05-21T18:40:40.399Z,2.30
2023-05-21T18:43:44.326Z,2.40
2023-05-21T18:46:47.617Z,2.65
2023-05-21T18:49:50.996Z,2.50
2023-05-21T18:52:55.525Z,2.20
2023-05-21T18:55:59.000Z,2.58
2023-05-21T18:59:03.157Z,2.55
2023-05-21T19:02:07.413Z,2.67
2023-05-21T19:05:11.211Z,2.70
2023-05-21T19:08:14.453Z,2.80
2023-05-21T19:11:19.607Z,2.47
2023-05-21T19:14:23.216Z,2.35
2023-05-21T19:17:26.539Z,2.30
2023-05-21T19:20:30.839Z,2.60
2023-05-21T19:23:44.580Z,2.13
2023-05-21T19:26:55.493Z,2.80
2023-05-21T19:29:59.012Z,2.50
2023-05-21T19:33:03.494Z,2.80
2023-05-21T19:36:07.321Z,2.80
2023-05-21T19:39:10.691Z,2.60
2023-05-21T19:42:13.924Z,2.13
2023-05-21T19:45:17.480Z,2.92
2023-05-21T19:48:21.413Z,3.00
2023-05-21T19:51:24.528Z,2.90
2023-05-21T19:54:28.379Z,2.80
2023-05-21T19:57:34.776Z,2.65
2023-05-21T20:00:39.931Z,2.55
2023-05-21T20:03:45.981Z,2.42
2023-05-21T20:06:49.835Z,2.80
2023-05-21T20:09:53.120Z,2.58
2023-05-21T20:12:57.282Z,2.50
2023-05-21T20:16:01.112Z,3.03
2023-05-21T20:19:04.780Z,2.72
2023-05-21T20:22:07.992Z,2.63
2023-05-21T20:25:11.185Z,2.42
2023-05-21T20:28:14.881Z,3.20
2023-05-21T20:31:18.089Z,3.67
2023-05-21T20:34:23.815Z,3.10
2023-05-21T20:37:27.026Z,3.05
2023-05-21T20:40:30.436Z,3.25
2023-05-21T20:43:33.649Z,3.05
2023-05-21T20:46:39.209Z,3.20
2023-05-21T20:49:44.412Z,2.80
2023-05-21T20:52:47.614Z,3.00
2023-05-21T20:55:55.083Z,2.58
2023-05-21T20:58:58.550Z,3.05
2023-05-21T21:02:02.579Z,2.58
2023-05-21T21:05:07.002Z,3.00
2023-05-21T21:08:10.228Z,3.20
2023-05-21T21:11:14.076Z,3.17
2023-05-21T21:14:17.865Z,3.03
2023-05-21T21:17:24.757Z,2.90
2023-05-21T21:20:27.985Z,3.47
2023-05-21T21:23:32.209Z,3.70
2023-05-21T21:26:36.107Z,3.42
2023-05-21T21:29:39.853Z,3.22
2023-05-21T21:32:43.079Z,3.05
2023-05-21T21:35:47.214Z,2.92
2023-05-21T21:38:50.681Z,3.58
2023-05-21T21:41:54.701Z,3.15
2023-05-21T21:44:57.944Z,2.85
2023-05-21T21:48:02.279Z,3.42
2023-05-21T21:51:05.405Z,3.10
2023-05-21T21:54:08.459Z,3.38
2023-05-21T21:57:11.494Z,2.53
2023-05-21T22:00:21.628Z,2.45
2023-05-21T22:03:29.440Z,2.75
2023-05-21T22:06:34.207Z,3.10
2023-05-21T22:09:37.689Z,2.38
2023-05-21T22:12:41.993Z,2.47
2023-05-21T22:15:46.874Z,2.97
2023-05-21T22:18:52.381Z,2.60
2023-05-21T22:21:55.997Z,3.25
2023-05-21T22:24:59.928Z,2.80
2023-05-21T22:28:03.503Z,3.13
2023-05-21T22:31:08.345Z,3.00
2023-05-21T22:34:11.662Z,3.10
2023-05-21T22:37:15.181Z,3.00
2023-05-21T22:40:19.131Z,2.58
2023-05-21T22:43:23.517Z,4.20
2023-05-21T22:46:28.009Z,3.20
2023-05-21T22:49:33.355Z,3.03
2023-05-21T22:52:38.786Z,3.22
2023-05-21T22:55:42.206Z,3.55
2023-05-21T22:58:45.821Z,3.30
2023-05-21T23:01:50.034Z,3.20
2023-05-21T23:04:53.445Z,2.90
2023-05-21T23:07:57.148Z,3.03
2023-05-21T23:11:00.380Z,3.58
2023-05-21T23:14:04.412Z,2.80
2023-05-21T23:17:08.184Z,3.10
2023-05-21T23:20:11.707Z,2.92
2023-05-21T23:23:16.400Z,3.33
2023-05-21T23:26:19.910Z,4.55
2023-05-21T23:29:23.775Z,3.50
2023-05-21T23:32:27.971Z,3.13
2023-05-21T23:35:31.993Z,3.35
2023-05-21T23:38:36.075Z,3.40
2023-05-21T23:41:39.480Z,3.30
2023-05-21T23:44:42.668Z,3.33
2023-05-21T23:47:47.153Z,3.60
2023-05-21T23:50:50.848Z,4.18
2023-05-21T23:53:54.391Z,6.22
2023-05-21T23:56:58.500Z,4.10
